createdAt,value
2022-09-21T00:00:45.408Z,10.40
2022-09-21T00:05:47.826Z,10.50
2022-09-21T00:10:50.671Z,10.50
2022-09-21T00:15:53.321Z,10.60
2022-09-21T00:20:55.694Z,10.90
2022-09-21T00:26:16.434Z,10.70
2022-09-21T00:31:18.872Z,10.80
2022-09-21T00:36:24.736Z,10.80
2022-09-21T00:41:28.916Z,10.80
2022-09-21T00:46:31.394Z,10.80
2022-09-21T00:51:34.198Z,10.80
2022-09-21T00:56:37.430Z,10.90
2022-09-21T01:01:39.903Z,10.80
2022-09-21T01:06:42.777Z,10.90
2022-09-21T01:12:05.471Z,11.00
2022-09-21T01:17:13.402Z,11.00
2022-09-21T01:22:54.054Z,10.90
2022-09-21T01:28:23.589Z,11.00
2022-09-21T01:33:36.264Z,11.00
2022-09-21T01:38:49.040Z,11.00
2022-09-21T01:43:55.868Z,11.00
2022-09-21T01:49:20.315Z,11.00
2022-09-21T01:54:28.541Z,11.00
2022-09-21T01:59:49.225Z,11.00
2022-09-21T02:04:51.883Z,11.00
2022-09-21T02:09:56.179Z,11.00
2022-09-21T02:14:59.920Z,11.00
2022-09-21T02:20:24.212Z,10.90
2022-09-21T02:25:48.927Z,11.10
2022-09-21T02:31:00.953Z,11.00
2022-09-21T02:36:13.840Z,11.00
2022-09-21T02:41:38.140Z,11.10
2022-09-21T02:46:46.076Z,10.80
2022-09-21T02:51:51.972Z,11.00
2022-09-21T02:56:55.602Z,11.00
2022-09-21T03:01:58.044Z,11.00
2022-09-21T03:07:00.435Z,11.00
2022-09-21T03:12:02.882Z,11.10
2022-09-21T03:17:05.257Z,11.00
2022-09-21T03:22:07.665Z,11.00
2022-09-21T03:27:10.066Z,11.00
2022-09-21T03:32:12.614Z,11.00
2022-09-21T03:37:15.098Z,11.10
2022-09-21T03:42:17.633Z,11.00
2022-09-21T03:47:20.737Z,10.90
2022-09-21T03:52:23.139Z,11.00
2022-09-21T03:57:25.525Z,10.90
2022-09-21T04:02:27.947Z,10.90
2022-09-21T04:07:34.632Z,11.00
2022-09-21T04:12:37.574Z,11.10
2022-09-21T04:17:40.023Z,10.90
2022-09-21T04:22:43.670Z,10.80
2022-09-21T04:27:48.087Z,10.80
2022-09-21T04:32:50.471Z,10.90
2022-09-21T04:37:55.851Z,10.70
2022-09-21T04:42:59.238Z,10.50
2022-09-21T04:48:01.798Z,10.40
2022-09-21T04:53:04.528Z,10.30
2022-09-21T04:58:06.929Z,10.30
2022-09-21T05:03:09.418Z,10.60
2022-09-21T05:08:11.750Z,10.60
2022-09-21T05:13:19.141Z,10.70
2022-09-21T05:18:22.185Z,10.60
2022-09-21T05:23:25.199Z,10.70
2022-09-21T05:28:28.391Z,10.80
2022-09-21T05:33:33.771Z,10.70
2022-09-21T05:38:36.522Z,10.80
2022-09-21T05:43:39.783Z,10.80
2022-09-21T05:48:53.355Z,10.90
2022-09-21T05:54:07.521Z,10.90
2022-09-21T05:59:37.569Z,11.00
2022-09-21T06:04:40.253Z,11.20
2022-09-21T06:09:43.403Z,11.30
2022-09-21T06:14:45.992Z,11.30
2022-09-21T06:19:48.374Z,11.40
2022-09-21T06:24:50.762Z,11.40
2022-09-21T06:29:53.177Z,11.60
2022-09-21T06:34:55.553Z,11.60
2022-09-21T06:39:58.006Z,11.70
2022-09-21T06:45:00.520Z,11.50
2022-09-21T06:50:03.404Z,11.70
2022-09-21T06:55:06.386Z,11.80
2022-09-21T07:00:11.114Z,12.00
2022-09-21T07:05:13.504Z,12.10
2022-09-21T07:10:20.515Z,12.20
2022-09-21T07:15:23.708Z,12.30
2022-09-21T07:20:26.127Z,12.40
2022-09-21T07:25:29.147Z,12.70
2022-09-21T07:30:31.574Z,13.00
2022-09-21T07:35:34.395Z,13.10
2022-09-21T07:40:36.903Z,13.30
2022-09-21T07:45:40.292Z,13.60
2022-09-21T07:50:43.104Z,13.30
2022-09-21T07:55:45.902Z,13.40
2022-09-21T08:00:48.677Z,13.70
2022-09-21T08:05:51.442Z,13.80
2022-09-21T08:10:54.644Z,14.00
2022-09-21T08:16:00.813Z,14.10
2022-09-21T08:21:03.522Z,14.30
2022-09-21T08:26:41.619Z,14.70
2022-09-21T08:37:47.929Z,14.80
2022-09-21T08:43:01.425Z,15.00
2022-09-21T08:48:10.978Z,15.30
2022-09-21T08:53:20.923Z,15.60
2022-09-21T08:58:23.414Z,15.80
2022-09-21T09:03:33.189Z,16.00
2022-09-21T09:08:44.173Z,16.10
2022-09-21T09:14:19.122Z,16.20
2022-09-21T09:19:42.533Z,16.20
2022-09-21T09:24:52.886Z,16.40
2022-09-21T09:48:27.350Z,16.40
2022-09-21T09:53:33.761Z,16.80
2022-09-21T09:58:57.620Z,16.70
2022-09-21T10:04:11.650Z,17.10
2022-09-21T10:09:41.063Z,17.60
2022-09-21T10:14:53.264Z,17.80
2022-09-21T10:20:04.268Z,17.20
2022-09-21T10:25:15.331Z,17.00
2022-09-21T10:30:32.558Z,17.00
2022-09-21T10:35:50.448Z,17.40
2022-09-21T10:40:53.712Z,17.40
2022-09-21T10:45:57.910Z,17.60
2022-09-21T10:51:00.638Z,17.90
2022-09-21T10:56:15.447Z,18.00
2022-09-21T11:01:24.525Z,17.80
2022-09-21T11:06:38.125Z,17.30
2022-09-21T11:11:56.677Z,17.20
2022-09-21T11:17:02.553Z,17.20
2022-09-21T11:22:12.043Z,17.10
2022-09-21T11:27:28.566Z,16.60
2022-09-21T11:32:52.943Z,16.60
2022-09-21T11:38:25.463Z,16.80
2022-09-21T11:43:27.802Z,17.40
2022-09-21T11:48:41.549Z,18.90
2022-09-21T11:54:13.781Z,19.50
2022-09-21T11:59:16.240Z,19.30
2022-09-21T12:04:37.742Z,18.60
2022-09-21T12:10:17.121Z,18.00
2022-09-21T12:15:46.271Z,17.80
2022-09-21T12:20:55.414Z,17.50
2022-09-21T12:26:01.556Z,17.90
2022-09-21T12:31:19.509Z,18.30
2022-09-21T12:36:24.339Z,19.20
2022-09-21T12:41:30.564Z,19.80
2022-09-21T12:46:53.025Z,19.80
2022-09-21T12:52:01.095Z,19.50
2022-09-21T12:58:10.880Z,19.10
2022-09-21T13:03:27.603Z,18.80
2022-09-21T13:08:36.781Z,18.40
2022-09-21T13:13:51.350Z,19.10
2022-09-21T13:19:06.900Z,19.10
2022-09-21T13:24:26.475Z,18.80
2022-09-21T13:29:32.864Z,17.90
2022-09-21T13:34:38.537Z,17.50
2022-09-21T13:40:02.977Z,17.70
2022-09-21T13:45:18.797Z,18.10
2022-09-21T13:50:39.249Z,18.70
2022-09-21T13:55:50.538Z,19.70
2022-09-21T14:00:57.278Z,20.20
2022-09-21T14:06:08.846Z,22.70
2022-09-21T14:11:18.367Z,24.60
2022-09-21T14:16:47.441Z,25.90
2022-09-21T14:22:08.052Z,26.70
2022-09-21T14:27:45.456Z,26.50
2022-09-21T14:33:00.169Z,26.20
2022-09-21T14:38:14.741Z,25.60
2022-09-21T14:43:30.108Z,26.10
2022-09-21T14:48:54.284Z,26.60
2022-09-21T14:54:02.588Z,27.20
2022-09-21T14:59:34.948Z,27.00
2022-09-21T15:04:46.636Z,26.80
2022-09-21T15:10:44.320Z,25.00
2022-09-21T15:16:01.304Z,23.20
2022-09-21T15:21:04.832Z,22.00
2022-09-21T15:26:29.905Z,23.80
2022-09-21T15:31:40.411Z,23.00
2022-09-21T15:36:44.365Z,21.80
2022-09-21T15:41:49.434Z,21.40
2022-09-21T15:46:57.979Z,21.40
2022-09-21T15:52:25.442Z,20.40
2022-09-21T15:57:40.408Z,20.80
2022-09-21T16:02:58.700Z,20.40
2022-09-21T16:08:17.929Z,20.60
2022-09-21T16:13:43.790Z,21.20
2022-09-21T16:18:49.231Z,20.10
2022-09-21T16:23:55.494Z,18.70
2022-09-21T16:29:23.531Z,17.90
2022-09-21T16:34:35.266Z,17.50
2022-09-21T16:39:37.658Z,16.90
2022-09-21T16:44:44.852Z,16.30
2022-09-21T16:49:47.213Z,15.60
2022-09-21T16:54:50.782Z,15.30
2022-09-21T16:59:53.207Z,15.00
2022-09-21T17:04:55.524Z,14.90
2022-09-21T17:09:58.422Z,14.50
2022-09-21T17:15:00.882Z,14.20
2022-09-21T17:20:15.414Z,13.90
2022-09-21T17:25:17.746Z,13.80
2022-09-21T17:30:21.164Z,13.60
2022-09-21T17:35:38.776Z,13.50
2022-09-21T17:40:42.655Z,13.30
2022-09-21T17:45:51.406Z,13.50
2022-09-21T17:50:54.088Z,13.30
2022-09-21T17:56:13.057Z,13.30
2022-09-21T18:01:31.461Z,13.20
2022-09-21T18:06:34.359Z,13.40
2022-09-21T18:12:02.657Z,13.30
2022-09-21T18:17:33.258Z,13.30
2022-09-21T18:22:54.202Z,13.20
2022-09-21T18:27:58.854Z,13.20
2022-09-21T18:33:19.117Z,13.00
2022-09-21T18:38:45.992Z,12.80
2022-09-21T18:44:23.604Z,12.40
2022-09-21T18:49:46.481Z,12.40
2022-09-21T18:54:49.292Z,12.20
2022-09-21T18:59:52.067Z,12.30
2022-09-21T19:04:54.672Z,12.30
2022-09-21T19:10:23.087Z,12.30
2022-09-21T19:15:59.362Z,12.30
2022-09-21T19:21:16.147Z,12.30
2022-09-21T19:26:47.978Z,12.30
2022-09-21T19:31:50.474Z,12.20
2022-09-21T19:36:52.940Z,12.30
2022-09-21T19:42:00.895Z,12.30
2022-09-21T19:47:16.659Z,12.40
2022-09-21T19:52:26.755Z,12.30
2022-09-21T19:57:48.436Z,12.30
2022-09-21T20:03:31.212Z,12.20
2022-09-21T20:08:42.947Z,12.10
2022-09-21T20:13:57.817Z,12.20
2022-09-21T20:19:04.154Z,12.00
2022-09-21T20:24:34.507Z,12.10
2022-09-21T20:29:37.123Z,12.00
2022-09-21T20:34:41.001Z,11.90
2022-09-21T20:39:43.462Z,12.10
2022-09-21T20:44:45.835Z,12.00
2022-09-21T20:49:49.125Z,11.90
2022-09-21T20:54:51.708Z,11.90
2022-09-21T20:59:54.050Z,11.80
2022-09-21T21:04:56.743Z,11.70
2022-09-21T21:09:59.149Z,11.60
2022-09-21T21:15:01.546Z,11.50
2022-09-21T21:20:06.022Z,11.40
2022-09-21T21:25:09.018Z,11.30
2022-09-21T21:30:11.981Z,11.30
2022-09-21T21:35:14.551Z,11.10
2022-09-21T21:40:17.121Z,11.00
2022-09-21T21:45:21.512Z,10.80
2022-09-21T21:50:23.964Z,10.70
2022-09-21T21:55:26.409Z,10.30
2022-09-21T22:00:28.965Z,10.00
2022-09-21T22:05:31.286Z,10.10
2022-09-21T22:10:34.764Z,9.90
2022-09-21T22:15:37.128Z,9.60
2022-09-21T22:20:40.839Z,9.80
2022-09-21T22:25:43.184Z,9.90
2022-09-21T22:30:49.929Z,10.00
2022-09-21T22:35:52.266Z,9.70
2022-09-21T22:40:54.683Z,9.30
2022-09-21T22:45:57.103Z,9.10
2022-09-21T22:50:59.692Z,9.10
2022-09-21T22:56:10.718Z,9.30
2022-09-21T23:01:18.166Z,9.00
2022-09-21T23:06:22.320Z,8.70
2022-09-21T23:11:29.155Z,8.80
2022-09-21T23:16:31.709Z,8.70
2022-09-21T23:21:34.394Z,8.50
2022-09-21T23:26:36.903Z,8.30
2022-09-21T23:31:44.435Z,8.30
2022-09-21T23:36:47.312Z,8.20
2022-09-21T23:41:49.639Z,8.20
2022-09-21T23:46:52.004Z,8.20
2022-09-21T23:51:54.413Z,8.10
2022-09-21T23:56:56.787Z,8.40
